ASA101 KSEA-KBOI
Flight info
| Callsign | ASA101 |
|---|---|
| Flight time | 0h 58m |
| Altitude | 33000 |
| Route | SUMMA2 SUMMA BKE DEVLE KYAAN4 |
| Aircraft | B739/M-VGDW/C |
Departure
| Time | 2026-05-08 02:04 |
|---|---|
| Airport | Seattle–Tacoma International Airport (KSEA) |
Arrival
| Time | 2026-05-08 03:03 |
|---|---|
| Airport | Boise Air Terminal/Gowen Field (KBOI) |
| Time | Latitude | Longitude | Altitude | Speed | Heading |
|---|---|---|---|---|---|
| 2026-05-08 02:00 | 47.44995 | -122.30627 | 410 ft | 15 kts | 358° |
| 2026-05-08 02:00 | 47.45131 | -122.30626 | 415 ft | 18 kts | 0° |
| 2026-05-08 02:01 | 47.45246 | -122.30625 | 419 ft | 14 kts | 1° |
| 2026-05-08 02:01 | 47.45351 | -122.30623 | 424 ft | 19 kts | 1° |
| 2026-05-08 02:01 | 47.45491 | -122.30621 | 429 ft | 18 kts | 1° |
| 2026-05-08 02:01 | 47.45610 | -122.30620 | 432 ft | 15 kts | 1° |
| 2026-05-08 02:02 | 47.45732 | -122.30620 | 434 ft | 20 kts | 0° |
| 2026-05-08 02:02 | 47.45889 | -122.30621 | 434 ft | 22 kts | 0° |
| 2026-05-08 02:02 | 47.46043 | -122.30621 | 432 ft | 22 kts | 359° |
| 2026-05-08 02:02 | 47.46196 | -122.30617 | 430 ft | 21 kts | 1° |
| 2026-05-08 02:03 | 47.46328 | -122.30615 | 425 ft | 13 kts | 356° |
| 2026-05-08 02:03 | 47.46375 | -122.30720 | 419 ft | 15 kts | 253° |
| 2026-05-08 02:03 | 47.46286 | -122.30779 | 419 ft | 20 kts | 181° |
| 2026-05-08 02:03 | 47.45909 | -122.30782 | 427 ft | 89 kts | 181° |
| 2026-05-08 02:04 | 47.45052 | -122.30785 | 410 ft | 155 kts | 181° |
| 2026-05-08 02:04 | 47.43801 | -122.30784 | 646 ft | 189 kts | 180° |
| 2026-05-08 02:04 | 47.42490 | -122.30778 | 1482 ft | 191 kts | 179° |
| 2026-05-08 02:04 | 47.41107 | -122.30730 | 2145 ft | 203 kts | 178° |
| 2026-05-08 02:05 | 47.39688 | -122.30653 | 2818 ft | 206 kts | 176° |
| 2026-05-08 02:05 | 47.38183 | -122.30520 | 3241 ft | 224 kts | 177° |
| 2026-05-08 02:05 | 47.36572 | -122.30418 | 3707 ft | 239 kts | 178° |
| 2026-05-08 02:05 | 47.34868 | -122.30343 | 4229 ft | 252 kts | 180° |
| 2026-05-08 02:06 | 47.33077 | -122.30376 | 4869 ft | 260 kts | 182° |
| 2026-05-08 02:06 | 47.31216 | -122.30434 | 5475 ft | 270 kts | 181° |
| 2026-05-08 02:06 | 47.29319 | -122.30459 | 6277 ft | 271 kts | 181° |
| 2026-05-08 02:06 | 47.27410 | -122.30496 | 7038 ft | 274 kts | 182° |
| 2026-05-08 02:07 | 47.25479 | -122.30553 | 7745 ft | 278 kts | 182° |
| 2026-05-08 02:07 | 47.23510 | -122.30548 | 8475 ft | 282 kts | 176° |
| 2026-05-08 02:07 | 47.21573 | -122.30010 | 9210 ft | 285 kts | 166° |
| 2026-05-08 02:07 | 47.19652 | -122.29062 | 9875 ft | 290 kts | 161° |
| 2026-05-08 02:08 | 47.17756 | -122.27958 | 10389 ft | 301 kts | 159° |
| 2026-05-08 02:08 | 47.15759 | -122.26686 | 10753 ft | 316 kts | 158° |
| 2026-05-08 02:08 | 47.13645 | -122.25407 | 11083 ft | 333 kts | 160° |
| 2026-05-08 02:08 | 47.11432 | -122.24186 | 11426 ft | 348 kts | 161° |
| 2026-05-08 02:09 | 47.09046 | -122.22945 | 11735 ft | 365 kts | 162° |
| 2026-05-08 02:09 | 47.06594 | -122.21701 | 12064 ft | 379 kts | 162° |
| 2026-05-08 02:09 | 47.04042 | -122.20412 | 12707 ft | 384 kts | 162° |
| 2026-05-08 02:09 | 47.01494 | -122.19121 | 13337 ft | 389 kts | 162° |
| 2026-05-08 02:10 | 46.98896 | -122.17802 | 13930 ft | 394 kts | 162° |
| 2026-05-08 02:10 | 46.96271 | -122.16465 | 14565 ft | 399 kts | 162° |
| 2026-05-08 02:10 | 46.93613 | -122.15109 | 15198 ft | 405 kts | 162° |
| 2026-05-08 02:10 | 46.90952 | -122.13751 | 15879 ft | 408 kts | 163° |
| 2026-05-08 02:11 | 46.88214 | -122.12354 | 16480 ft | 413 kts | 163° |
| 2026-05-08 02:11 | 46.85457 | -122.10947 | 17080 ft | 417 kts | 163° |
| 2026-05-08 02:11 | 46.82679 | -122.09529 | 17645 ft | 422 kts | 163° |
| 2026-05-08 02:11 | 46.79873 | -122.08097 | 18270 ft | 425 kts | 163° |
| 2026-05-08 02:12 | 46.77040 | -122.06651 | 18866 ft | 429 kts | 163° |
| 2026-05-08 02:12 | 46.74204 | -122.05203 | 19496 ft | 431 kts | 163° |
| 2026-05-08 02:12 | 46.71332 | -122.03738 | 20078 ft | 435 kts | 163° |
| 2026-05-08 02:12 | 46.68428 | -122.02213 | 20651 ft | 439 kts | 161° |
| 2026-05-08 02:13 | 46.65609 | -122.00349 | 21176 ft | 445 kts | 154° |
| 2026-05-08 02:13 | 46.62976 | -121.97851 | 21707 ft | 451 kts | 144° |
| 2026-05-08 02:13 | 46.60672 | -121.94769 | 22249 ft | 455 kts | 134° |
| 2026-05-08 02:13 | 46.58669 | -121.91078 | 22724 ft | 461 kts | 125° |
| 2026-05-08 02:14 | 46.56921 | -121.87135 | 23244 ft | 464 kts | 122° |
| 2026-05-08 02:14 | 46.55280 | -121.83087 | 23721 ft | 468 kts | 120° |
| 2026-05-08 02:14 | 46.53671 | -121.78951 | 24153 ft | 472 kts | 120° |
| 2026-05-08 02:14 | 46.52050 | -121.74728 | 24613 ft | 476 kts | 119° |
| 2026-05-08 02:15 | 46.50428 | -121.70509 | 25045 ft | 480 kts | 119° |
| 2026-05-08 02:15 | 46.48800 | -121.66311 | 25529 ft | 483 kts | 120° |
| 2026-05-08 02:15 | 46.47141 | -121.62067 | 25963 ft | 487 kts | 120° |
| 2026-05-08 02:15 | 46.45451 | -121.57782 | 26374 ft | 491 kts | 120° |
| 2026-05-08 02:16 | 46.43728 | -121.53439 | 26813 ft | 494 kts | 120° |
| 2026-05-08 02:16 | 46.41983 | -121.49064 | 27308 ft | 496 kts | 120° |
| 2026-05-08 02:16 | 46.40229 | -121.44682 | 27789 ft | 497 kts | 120° |
| 2026-05-08 02:16 | 46.38478 | -121.40324 | 28457 ft | 494 kts | 120° |
| 2026-05-08 02:17 | 46.36755 | -121.36043 | 29031 ft | 493 kts | 120° |
| 2026-05-08 02:17 | 46.35015 | -121.31731 | 29546 ft | 493 kts | 121° |
| 2026-05-08 02:17 | 46.33265 | -121.27402 | 30018 ft | 494 kts | 121° |
| 2026-05-08 02:17 | 46.31515 | -121.23078 | 30615 ft | 491 kts | 121° |
| 2026-05-08 02:18 | 46.29762 | -121.18755 | 31128 ft | 491 kts | 121° |
| 2026-05-08 02:18 | 46.28034 | -121.14500 | 31551 ft | 492 kts | 121° |
| 2026-05-08 02:18 | 46.26273 | -121.10165 | 32008 ft | 492 kts | 121° |
| 2026-05-08 02:18 | 46.24528 | -121.05877 | 32614 ft | 488 kts | 121° |
| 2026-05-08 02:19 | 46.22792 | -121.01622 | 32996 ft | 488 kts | 120° |
| 2026-05-08 02:19 | 46.21061 | -120.97382 | 33016 ft | 489 kts | 120° |
| 2026-05-08 02:19 | 46.17604 | -120.88940 | 33027 ft | 487 kts | 120° |
| 2026-05-08 02:20 | 46.14122 | -120.80464 | 33035 ft | 487 kts | 121° |
| 2026-05-08 02:20 | 46.10646 | -120.72032 | 33038 ft | 486 kts | 121° |
| 2026-05-08 02:21 | 46.07153 | -120.63578 | 33031 ft | 486 kts | 121° |
| 2026-05-08 02:21 | 46.03665 | -120.55160 | 33031 ft | 487 kts | 120° |
| 2026-05-08 02:22 | 46.00188 | -120.46795 | 33031 ft | 487 kts | 120° |
| 2026-05-08 02:22 | 45.96706 | -120.38448 | 33018 ft | 487 kts | 120° |
| 2026-05-08 02:23 | 45.93204 | -120.30081 | 32998 ft | 487 kts | 121° |
| 2026-05-08 02:23 | 45.89691 | -120.21705 | 32980 ft | 487 kts | 121° |
| 2026-05-08 02:24 | 45.86150 | -120.13292 | 32962 ft | 487 kts | 121° |
| 2026-05-08 02:24 | 45.82635 | -120.04969 | 32953 ft | 488 kts | 121° |
| 2026-05-08 02:25 | 45.79086 | -119.96587 | 32952 ft | 488 kts | 121° |
| 2026-05-08 02:25 | 45.75537 | -119.88232 | 32948 ft | 488 kts | 121° |
| 2026-05-08 02:26 | 45.71997 | -119.79919 | 32820 ft | 484 kts | 121° |
| 2026-05-08 02:26 | 45.70233 | -119.75787 | 32546 ft | 476 kts | 121° |
| 2026-05-08 02:26 | 45.68516 | -119.71767 | 32277 ft | 471 kts | 121° |
| 2026-05-08 02:27 | 45.66787 | -119.67726 | 32004 ft | 472 kts | 121° |
| 2026-05-08 02:27 | 45.65069 | -119.63715 | 31737 ft | 475 kts | 121° |
| 2026-05-08 02:27 | 45.63330 | -119.59662 | 31465 ft | 476 kts | 121° |
| 2026-05-08 02:27 | 45.61590 | -119.55616 | 31197 ft | 476 kts | 121° |
| 2026-05-08 02:28 | 45.59851 | -119.51574 | 30928 ft | 477 kts | 121° |
| 2026-05-08 02:28 | 45.58082 | -119.47469 | 30654 ft | 476 kts | 121° |
| 2026-05-08 02:28 | 45.56347 | -119.43446 | 30387 ft | 477 kts | 121° |
| 2026-05-08 02:28 | 45.54583 | -119.39365 | 30116 ft | 478 kts | 121° |
| 2026-05-08 02:29 | 45.52850 | -119.35362 | 29850 ft | 478 kts | 121° |
| 2026-05-08 02:29 | 45.51084 | -119.31287 | 29583 ft | 479 kts | 122° |
| 2026-05-08 02:29 | 45.49312 | -119.27203 | 29322 ft | 481 kts | 122° |
| 2026-05-08 02:29 | 45.47540 | -119.23126 | 29070 ft | 481 kts | 122° |
| 2026-05-08 02:30 | 45.43977 | -119.14942 | 29027 ft | 483 kts | 122° |
| 2026-05-08 02:30 | 45.40428 | -119.06815 | 29034 ft | 483 kts | 122° |
| 2026-05-08 02:31 | 45.36843 | -118.98630 | 29044 ft | 482 kts | 122° |
| 2026-05-08 02:31 | 45.33300 | -118.90565 | 29053 ft | 481 kts | 122° |
| 2026-05-08 02:32 | 45.29726 | -118.82455 | 29054 ft | 482 kts | 122° |
| 2026-05-08 02:32 | 45.26131 | -118.74319 | 29074 ft | 481 kts | 122° |
| 2026-05-08 02:33 | 45.22501 | -118.66131 | 29077 ft | 492 kts | 122° |
| 2026-05-08 02:33 | 45.18787 | -118.57773 | 29072 ft | 502 kts | 122° |
| 2026-05-08 02:34 | 45.15032 | -118.49348 | 29072 ft | 501 kts | 122° |
| 2026-05-08 02:34 | 45.11294 | -118.40990 | 29082 ft | 501 kts | 122° |
| 2026-05-08 02:35 | 45.07532 | -118.32602 | 29094 ft | 502 kts | 122° |
| 2026-05-08 02:35 | 45.03750 | -118.24194 | 29111 ft | 500 kts | 122° |
| 2026-05-08 02:36 | 44.99957 | -118.15790 | 29102 ft | 499 kts | 123° |
| 2026-05-08 02:36 | 44.96173 | -118.07437 | 29086 ft | 501 kts | 122° |
| 2026-05-08 02:37 | 44.92391 | -117.99110 | 29075 ft | 500 kts | 122° |
| 2026-05-08 02:37 | 44.88579 | -117.90743 | 29072 ft | 503 kts | 122° |
| 2026-05-08 02:38 | 44.84558 | -117.82610 | 29066 ft | 502 kts | 130° |
| 2026-05-08 02:38 | 44.82071 | -117.79079 | 29073 ft | 499 kts | 141° |
| 2026-05-08 02:38 | 44.79303 | -117.76097 | 29071 ft | 498 kts | 146° |
| 2026-05-08 02:39 | 44.73406 | -117.70727 | 29067 ft | 498 kts | 150° |
| 2026-05-08 02:39 | 44.67448 | -117.65618 | 29066 ft | 498 kts | 149° |
| 2026-05-08 02:40 | 44.61503 | -117.60484 | 29066 ft | 499 kts | 149° |
| 2026-05-08 02:40 | 44.55560 | -117.55277 | 29059 ft | 495 kts | 149° |
| 2026-05-08 02:41 | 44.52657 | -117.52713 | 29063 ft | 478 kts | 149° |
| 2026-05-08 02:41 | 44.49875 | -117.50247 | 29058 ft | 462 kts | 149° |
| 2026-05-08 02:41 | 44.47218 | -117.47890 | 28925 ft | 450 kts | 149° |
| 2026-05-08 02:41 | 44.44545 | -117.45521 | 28366 ft | 449 kts | 149° |
| 2026-05-08 02:42 | 44.41864 | -117.43151 | 27803 ft | 448 kts | 148° |
| 2026-05-08 02:42 | 44.39229 | -117.40823 | 27346 ft | 444 kts | 148° |
| 2026-05-08 02:42 | 44.36600 | -117.38500 | 26947 ft | 439 kts | 148° |
| 2026-05-08 02:42 | 44.34020 | -117.36222 | 26427 ft | 433 kts | 148° |
| 2026-05-08 02:43 | 44.31455 | -117.33959 | 25754 ft | 429 kts | 149° |
| 2026-05-08 02:43 | 44.28950 | -117.31752 | 25147 ft | 423 kts | 149° |
| 2026-05-08 02:43 | 44.26426 | -117.29530 | 24529 ft | 417 kts | 149° |
| 2026-05-08 02:43 | 44.23967 | -117.27367 | 23858 ft | 413 kts | 149° |
| 2026-05-08 02:44 | 44.21609 | -117.25139 | 23243 ft | 408 kts | 144° |
| 2026-05-08 02:44 | 44.19422 | -117.22681 | 22646 ft | 403 kts | 140° |
| 2026-05-08 02:44 | 44.17338 | -117.20073 | 21986 ft | 399 kts | 138° |
| 2026-05-08 02:44 | 44.15296 | -117.17395 | 21290 ft | 396 kts | 137° |
| 2026-05-08 02:45 | 44.13300 | -117.14736 | 20652 ft | 391 kts | 136° |
| 2026-05-08 02:45 | 44.11339 | -117.12121 | 19985 ft | 388 kts | 136° |
| 2026-05-08 02:45 | 44.09408 | -117.09558 | 19348 ft | 384 kts | 136° |
| 2026-05-08 02:45 | 44.07469 | -117.06997 | 18695 ft | 380 kts | 136° |
| 2026-05-08 02:46 | 44.05536 | -117.04452 | 17990 ft | 378 kts | 136° |
| 2026-05-08 02:46 | 44.03628 | -117.01949 | 17335 ft | 376 kts | 137° |
| 2026-05-08 02:46 | 44.01709 | -116.99441 | 16732 ft | 372 kts | 137° |
| 2026-05-08 02:46 | 43.99824 | -116.96985 | 16072 ft | 370 kts | 137° |
| 2026-05-08 02:47 | 43.97939 | -116.94469 | 15452 ft | 367 kts | 134° |
| 2026-05-08 02:47 | 43.96256 | -116.91827 | 14812 ft | 366 kts | 128° |
| 2026-05-08 02:47 | 43.94740 | -116.88987 | 14242 ft | 362 kts | 124° |
| 2026-05-08 02:47 | 43.93344 | -116.86118 | 13634 ft | 359 kts | 122° |
| 2026-05-08 02:48 | 43.91957 | -116.83170 | 13054 ft | 356 kts | 122° |
| 2026-05-08 02:48 | 43.90611 | -116.80306 | 12521 ft | 352 kts | 122° |
| 2026-05-08 02:48 | 43.89249 | -116.77443 | 11924 ft | 350 kts | 123° |
| 2026-05-08 02:48 | 43.87898 | -116.74635 | 11545 ft | 340 kts | 123° |
| 2026-05-08 02:49 | 43.86591 | -116.71940 | 11306 ft | 327 kts | 123° |
| 2026-05-08 02:49 | 43.85348 | -116.69386 | 11124 ft | 314 kts | 123° |
| 2026-05-08 02:49 | 43.84121 | -116.66869 | 10860 ft | 305 kts | 123° |
| 2026-05-08 02:49 | 43.82862 | -116.64543 | 10436 ft | 303 kts | 132° |
| 2026-05-08 02:50 | 43.81277 | -116.62586 | 10007 ft | 300 kts | 144° |
| 2026-05-08 02:50 | 43.79537 | -116.60947 | 9580 ft | 298 kts | 148° |
| 2026-05-08 02:50 | 43.77781 | -116.59393 | 9169 ft | 296 kts | 148° |
| 2026-05-08 02:50 | 43.76060 | -116.57846 | 8764 ft | 293 kts | 147° |
| 2026-05-08 02:51 | 43.74361 | -116.56273 | 8374 ft | 290 kts | 146° |
| 2026-05-08 02:51 | 43.72677 | -116.54681 | 7933 ft | 289 kts | 146° |
| 2026-05-08 02:51 | 43.71042 | -116.53111 | 7539 ft | 287 kts | 145° |
| 2026-05-08 02:51 | 43.69409 | -116.51510 | 7160 ft | 284 kts | 144° |
| 2026-05-08 02:52 | 43.67816 | -116.49944 | 6896 ft | 276 kts | 144° |
| 2026-05-08 02:52 | 43.66275 | -116.48431 | 6740 ft | 264 kts | 144° |
| 2026-05-08 02:52 | 43.64779 | -116.46970 | 6558 ft | 254 kts | 144° |
| 2026-05-08 02:52 | 43.63377 | -116.45609 | 6517 ft | 237 kts | 144° |
| 2026-05-08 02:53 | 43.62044 | -116.44319 | 6526 ft | 231 kts | 144° |
| 2026-05-08 02:53 | 43.60703 | -116.43021 | 6577 ft | 233 kts | 144° |
| 2026-05-08 02:53 | 43.59358 | -116.41720 | 6688 ft | 233 kts | 144° |
| 2026-05-08 02:53 | 43.58033 | -116.40436 | 6777 ft | 232 kts | 144° |
| 2026-05-08 02:54 | 43.56701 | -116.39140 | 6845 ft | 234 kts | 144° |
| 2026-05-08 02:54 | 43.55349 | -116.37835 | 6635 ft | 236 kts | 145° |
| 2026-05-08 02:54 | 43.53953 | -116.36577 | 6341 ft | 237 kts | 146° |
| 2026-05-08 02:54 | 43.52760 | -116.35041 | 6160 ft | 230 kts | 120° |
| 2026-05-08 02:55 | 43.52032 | -116.33082 | 6252 ft | 231 kts | 113° |
| 2026-05-08 02:55 | 43.50718 | -116.29048 | 6293 ft | 228 kts | 112° |
| 2026-05-08 02:55 | 43.50057 | -116.27026 | 6344 ft | 230 kts | 113° |
| 2026-05-08 02:56 | 43.49394 | -116.25001 | 6418 ft | 227 kts | 113° |
| 2026-05-08 02:56 | 43.48747 | -116.23021 | 6521 ft | 223 kts | 112° |
| 2026-05-08 02:56 | 43.48119 | -116.21099 | 6533 ft | 209 kts | 113° |
| 2026-05-08 02:56 | 43.47527 | -116.19289 | 6546 ft | 208 kts | 113° |
| 2026-05-08 02:57 | 43.46929 | -116.17451 | 6544 ft | 208 kts | 112° |
| 2026-05-08 02:57 | 43.46331 | -116.15604 | 6544 ft | 208 kts | 112° |
| 2026-05-08 02:57 | 43.45739 | -116.13776 | 6543 ft | 209 kts | 112° |
| 2026-05-08 02:57 | 43.45139 | -116.11931 | 6549 ft | 209 kts | 112° |
| 2026-05-08 02:58 | 43.44544 | -116.10112 | 6549 ft | 209 kts | 113° |
| 2026-05-08 02:58 | 43.43949 | -116.08295 | 6543 ft | 201 kts | 112° |
| 2026-05-08 02:58 | 43.43576 | -116.06441 | 6548 ft | 202 kts | 86° |
| 2026-05-08 02:58 | 43.43998 | -116.04655 | 6551 ft | 195 kts | 48° |
| 2026-05-08 02:59 | 43.45076 | -116.03546 | 6560 ft | 190 kts | 23° |
| 2026-05-08 02:59 | 43.46308 | -116.02881 | 6551 ft | 188 kts | 6° |
| 2026-05-08 02:59 | 43.47579 | -116.03170 | 6558 ft | 185 kts | 330° |
| 2026-05-08 02:59 | 43.48632 | -116.04204 | 6562 ft | 186 kts | 322° |
| 2026-05-08 03:00 | 43.49667 | -116.05310 | 6548 ft | 187 kts | 320° |
| 2026-05-08 03:00 | 43.50441 | -116.06805 | 6047 ft | 202 kts | 301° |
| 2026-05-08 03:00 | 43.51161 | -116.08488 | 5504 ft | 201 kts | 303° |
| 2026-05-08 03:00 | 43.51859 | -116.10093 | 5209 ft | 188 kts | 300° |
| 2026-05-08 03:01 | 43.52480 | -116.11655 | 4858 ft | 186 kts | 301° |
| 2026-05-08 03:01 | 43.53097 | -116.13184 | 4437 ft | 183 kts | 301° |
| 2026-05-08 03:01 | 43.53673 | -116.14756 | 3960 ft | 182 kts | 297° |
| 2026-05-08 03:01 | 43.54215 | -116.16298 | 3660 ft | 169 kts | 298° |
| 2026-05-08 03:02 | 43.54750 | -116.17716 | 3423 ft | 166 kts | 300° |
| 2026-05-08 03:02 | 43.55221 | -116.19125 | 3181 ft | 160 kts | 297° |
| 2026-05-08 03:02 | 43.55713 | -116.20494 | 2944 ft | 154 kts | 297° |
| 2026-05-08 03:02 | 43.56153 | -116.21772 | 2867 ft | 135 kts | 298° |
| 2026-05-08 03:03 | 43.56470 | -116.22698 | 2857 ft | 72 kts | 294° |
| 2026-05-08 03:03 | 43.56591 | -116.23062 | 2852 ft | 18 kts | 294° |
| 2026-05-08 03:03 | 43.56689 | -116.23158 | 2850 ft | 18 kts | 356° |
| 2026-05-08 03:03 | 43.56781 | -116.23098 | 2851 ft | 13 kts | 24° |
| 2026-05-08 03:04 | 43.56868 | -116.23048 | 2851 ft | 13 kts | 21° |
| 2026-05-08 03:04 | 43.56889 | -116.22951 | 2853 ft | 11 kts | 113° |
| 2026-05-08 03:04 | 43.56855 | -116.22844 | 2854 ft | 16 kts | 115° |
| 2026-05-08 03:04 | 43.56798 | -116.22679 | 2856 ft | 18 kts | 116° |
| 2026-05-08 03:05 | 43.56744 | -116.22527 | 2858 ft | 16 kts | 115° |
| 2026-05-08 03:05 | 43.56698 | -116.22390 | 2859 ft | 14 kts | 115° |
| 2026-05-08 03:05 | 43.56657 | -116.22268 | 2860 ft | 12 kts | 115° |
| 2026-05-08 03:05 | 43.56629 | -116.22166 | 2862 ft | 10 kts | 91° |
| 2026-05-08 03:06 | 43.56644 | -116.22079 | 2862 ft | 8 kts | 58° |
| 2026-05-08 03:06 | 43.56685 | -116.22034 | 2862 ft | 6 kts | 32° |
| 2026-05-08 03:06 | 43.56699 | -116.22021 | 2862 ft | 0 kts | 32° |